createdAt,value
2023-01-02T00:00:22.277Z,6.50
2023-01-02T00:02:49.667Z,6.72
2023-01-02T00:05:16.857Z,6.40
2023-01-02T00:07:43.984Z,6.78
2023-01-02T00:10:11.314Z,6.00
2023-01-02T00:12:38.425Z,5.80
2023-01-02T00:15:05.790Z,5.90
2023-01-02T00:17:33.000Z,7.07
2023-01-02T00:20:00.461Z,10.18
2023-01-02T00:22:27.603Z,11.23
2023-01-02T00:24:54.735Z,11.93
2023-01-02T00:27:21.882Z,11.43
2023-01-02T00:29:48.952Z,13.45
2023-01-02T00:32:16.201Z,11.73
2023-01-02T00:34:43.294Z,12.35
2023-01-02T00:37:10.402Z,10.93
2023-01-02T00:39:37.556Z,10.30
2023-01-02T00:42:04.823Z,8.98
2023-01-02T00:44:31.915Z,9.18
2023-01-02T00:46:59.125Z,8.50
2023-01-02T00:49:26.285Z,7.90
2023-01-02T01:04:21.326Z,6.55
2023-01-02T01:06:48.446Z,6.50
2023-01-02T01:09:15.639Z,6.13
2023-01-02T01:11:42.848Z,6.38
2023-01-02T01:14:09.936Z,6.22
2023-01-02T01:16:37.065Z,6.97
2023-01-02T01:19:04.208Z,6.47
2023-01-02T01:21:31.399Z,6.00
2023-01-02T01:23:58.462Z,6.47
2023-01-02T01:26:25.707Z,6.65
2023-01-02T01:28:53.863Z,6.63
2023-01-02T01:31:21.477Z,6.15
2023-01-02T01:33:48.929Z,6.28
2023-01-02T01:36:25.236Z,6.82
2023-01-02T01:38:52.429Z,6.50
2023-01-02T01:41:20.812Z,6.72
2023-01-02T01:43:51.913Z,6.40
2023-01-02T01:46:42.129Z,6.45
2023-01-02T01:49:13.172Z,5.97
2023-01-02T01:51:44.197Z,6.82
2023-01-02T01:54:12.370Z,6.78
2023-01-02T01:56:45.475Z,6.18
2023-01-02T01:59:12.715Z,6.60
2023-01-02T02:01:41.888Z,7.13
2023-01-02T02:04:10.324Z,7.00
2023-01-02T02:06:37.666Z,7.43
2023-01-02T02:09:16.355Z,7.57
2023-01-02T02:11:43.596Z,7.50
2023-01-02T02:14:10.657Z,7.53
2023-01-02T02:16:37.805Z,7.57
2023-01-02T02:19:27.508Z,6.80
2023-01-02T02:22:13.373Z,6.93
2023-01-02T02:24:59.142Z,7.13
2023-01-02T02:27:38.559Z,7.05
2023-01-02T02:30:05.685Z,7.32
2023-01-02T02:32:48.148Z,7.65
2023-01-02T02:35:32.745Z,7.10
2023-01-02T02:38:06.820Z,7.28
2023-01-02T02:40:33.912Z,8.02
2023-01-02T02:43:19.546Z,7.20
2023-01-02T02:45:55.658Z,7.10
2023-01-02T02:48:32.194Z,7.75
2023-01-02T02:51:02.456Z,6.88
2023-01-02T02:53:52.669Z,7.93
2023-01-02T02:56:21.486Z,7.55
2023-01-02T02:58:48.653Z,7.22
2023-01-02T03:01:17.027Z,7.55
2023-01-02T03:03:44.504Z,7.97
2023-01-02T03:06:17.570Z,8.43
2023-01-02T03:08:56.848Z,8.93
2023-01-02T03:11:27.876Z,8.13
2023-01-02T03:14:02.021Z,8.35
2023-01-02T03:16:42.456Z,8.27
2023-01-02T03:19:09.552Z,8.60
2023-01-02T03:21:46.763Z,8.88
2023-01-02T03:24:15.730Z,8.52
2023-01-02T03:26:47.245Z,9.15
2023-01-02T03:29:17.528Z,8.60
2023-01-02T03:31:46.894Z,8.70
2023-01-02T03:34:15.814Z,8.80
2023-01-02T03:36:44.947Z,8.05
2023-01-02T03:39:13.792Z,8.25
2023-01-02T03:41:56.098Z,8.90
2023-01-02T03:44:24.799Z,8.73
2023-01-02T03:46:54.433Z,8.32
2023-01-02T03:49:33.104Z,8.25
2023-01-02T03:52:00.302Z,8.80
2023-01-02T03:54:28.748Z,8.82
2023-01-02T03:57:02.107Z,8.40
2023-01-02T03:59:47.985Z,9.05
2023-01-02T04:02:29.683Z,9.13
2023-01-02T04:05:20.136Z,8.50
2023-01-02T04:08:00.950Z,8.43
2023-01-02T04:10:29.145Z,8.57
2023-01-02T04:12:58.523Z,9.10
2023-01-02T04:15:28.021Z,9.38
2023-01-02T04:18:01.459Z,9.48
2023-01-02T04:20:33.195Z,9.52
2023-01-02T04:23:05.520Z,9.25
2023-01-02T04:25:36.295Z,9.02
2023-01-02T04:28:07.579Z,8.43
2023-01-02T04:33:06.394Z,8.98
2023-01-02T04:35:35.295Z,9.55
2023-01-02T04:38:09.501Z,9.23
2023-01-02T04:40:38.025Z,9.27
2023-01-02T04:43:09.360Z,9.82
2023-01-02T04:48:03.564Z,9.20
2023-01-02T04:50:30.626Z,10.63
2023-01-02T04:52:57.744Z,10.95
2023-01-02T04:55:24.913Z,10.00
2023-01-02T04:57:51.978Z,10.07
2023-01-02T05:00:19.175Z,10.43
2023-01-02T05:02:46.381Z,10.40
2023-01-02T05:05:13.580Z,9.35
2023-01-02T05:07:40.780Z,9.60
2023-01-02T05:10:08.401Z,10.23
2023-01-02T05:12:36.049Z,10.32
2023-01-02T05:15:03.878Z,9.88
2023-01-02T05:17:34.668Z,10.35
2023-01-02T05:20:01.999Z,10.02
2023-01-02T05:22:47.908Z,9.77
2023-01-02T05:25:15.063Z,10.75
2023-01-02T05:27:42.138Z,10.30
2023-01-02T05:30:09.990Z,10.15
2023-01-02T05:32:37.418Z,10.20
2023-01-02T05:35:04.610Z,10.07
2023-01-02T05:37:31.792Z,9.52
2023-01-02T05:39:58.894Z,9.52
2023-01-02T05:42:25.981Z,10.10
2023-01-02T05:44:53.192Z,10.90
2023-01-02T05:47:20.299Z,10.65
2023-01-02T05:49:47.349Z,11.27
2023-01-02T05:52:14.534Z,10.98
2023-01-02T05:54:41.656Z,10.40
2023-01-02T05:57:08.829Z,9.70
2023-01-02T05:59:36.546Z,10.38
2023-01-02T06:02:03.906Z,10.70
2023-01-02T06:04:31.353Z,10.38
2023-01-02T06:06:58.512Z,10.52
2023-01-02T06:09:25.598Z,11.10
2023-01-02T06:11:52.758Z,11.27
2023-01-02T06:14:20.194Z,11.73
2023-01-02T06:16:47.401Z,11.90
2023-01-02T06:19:14.512Z,12.50
2023-01-02T06:21:41.662Z,14.10
2023-01-02T06:24:08.741Z,13.45
2023-01-02T06:26:35.826Z,14.10
2023-01-02T06:29:03.321Z,14.90
2023-01-02T06:31:30.549Z,14.45
2023-01-02T06:33:58.769Z,13.80
2023-01-02T06:36:26.417Z,12.77
2023-01-02T06:38:53.543Z,11.70
2023-01-02T06:41:20.796Z,13.00
2023-01-02T06:43:48.752Z,12.38
2023-01-02T06:46:16.835Z,12.60
2023-01-02T06:48:44.007Z,12.02
2023-01-02T06:51:15.657Z,11.18
2023-01-02T06:53:43.523Z,12.15
2023-01-02T06:56:10.984Z,13.15
2023-01-02T06:58:38.868Z,12.70
2023-01-02T07:01:07.748Z,11.95
2023-01-02T07:03:35.019Z,12.30
2023-01-02T07:06:09.690Z,12.90
2023-01-02T07:08:37.013Z,12.18
2023-01-02T07:11:20.845Z,12.30
2023-01-02T07:13:48.469Z,11.90
2023-01-02T07:16:16.530Z,12.07
2023-01-02T07:18:43.982Z,12.57
2023-01-02T07:21:12.000Z,13.10
2023-01-02T07:23:39.569Z,13.15
2023-01-02T07:26:07.463Z,12.85
2023-01-02T07:28:35.078Z,12.70
2023-01-02T07:31:03.440Z,13.25
2023-01-02T07:33:31.322Z,13.82
2023-01-02T07:36:02.691Z,16.00
2023-01-02T07:38:29.909Z,15.48
2023-01-02T07:40:57.068Z,15.40
2023-01-02T07:43:24.227Z,15.90
2023-01-02T07:45:51.400Z,15.40
2023-01-02T07:48:19.139Z,13.98
2023-01-02T07:50:46.444Z,13.95
2023-01-02T07:53:13.684Z,15.35
2023-01-02T07:55:40.866Z,14.90
2023-01-02T07:58:08.140Z,15.85
2023-01-02T08:00:35.223Z,15.52
2023-01-02T08:03:02.394Z,15.32
2023-01-02T08:05:29.463Z,15.07
2023-01-02T08:07:56.519Z,15.43
2023-01-02T08:10:23.702Z,13.40
2023-01-02T08:12:50.872Z,15.32
2023-01-02T08:15:17.969Z,13.25
2023-01-02T08:17:45.127Z,12.80
2023-01-02T08:20:12.326Z,14.07
2023-01-02T08:22:39.497Z,13.57
2023-01-02T08:25:07.039Z,14.13
2023-01-02T08:27:34.214Z,13.38
2023-01-02T08:30:01.493Z,13.15
2023-01-02T08:32:28.653Z,13.93
2023-01-02T08:34:55.748Z,13.20
2023-01-02T08:37:22.888Z,13.63
2023-01-02T08:39:50.070Z,13.85
2023-01-02T08:42:17.474Z,14.35
2023-01-02T08:44:44.643Z,13.77
2023-01-02T08:47:11.799Z,14.27
2023-01-02T08:49:39.100Z,14.15
2023-01-02T08:52:06.323Z,16.25
2023-01-02T08:54:33.541Z,13.68
2023-01-02T08:57:00.739Z,15.75
2023-01-02T08:59:27.927Z,14.82
2023-01-02T09:01:55.537Z,15.30
2023-01-02T09:04:22.896Z,14.32
2023-01-02T09:06:50.005Z,14.73
2023-01-02T09:09:18.142Z,15.05
2023-01-02T09:11:48.954Z,13.77
2023-01-02T09:14:16.606Z,12.73
2023-01-02T09:16:43.884Z,12.35
2023-01-02T09:19:11.004Z,13.48
2023-01-02T09:21:38.150Z,12.68
2023-01-02T09:24:05.639Z,14.07
2023-01-02T09:26:32.781Z,11.52
2023-01-02T09:28:59.919Z,12.20
2023-01-02T09:31:27.274Z,11.18
2023-01-02T09:33:55.245Z,11.60
2023-01-02T09:36:22.899Z,11.10
2023-01-02T09:38:53.952Z,11.00
2023-01-02T09:41:33.017Z,11.27
2023-01-02T09:44:02.260Z,11.90
2023-01-02T09:46:48.218Z,11.10
2023-01-02T09:49:18.473Z,10.27
2023-01-02T09:51:45.902Z,10.40
2023-01-02T09:54:18.826Z,11.00
2023-01-02T09:56:48.774Z,11.00
2023-01-02T09:59:26.668Z,10.60
2023-01-02T10:02:20.391Z,10.90
2023-01-02T10:04:56.458Z,11.02
2023-01-02T10:07:26.982Z,11.35
2023-01-02T10:09:56.989Z,11.07
2023-01-02T10:12:37.883Z,10.43
2023-01-02T10:15:07.419Z,11.73
2023-01-02T10:17:37.576Z,10.60
2023-01-02T10:20:08.018Z,11.30
2023-01-02T10:22:48.253Z,10.95
2023-01-02T10:25:22.351Z,12.00
2023-01-02T14:01:43.032Z,12.48
2023-01-02T14:04:13.470Z,12.40
2023-01-02T14:06:41.819Z,12.83
2023-01-02T14:09:10.745Z,13.05
2023-01-02T14:11:55.622Z,13.15
2023-01-02T14:14:27.005Z,12.95
2023-01-02T14:17:12.930Z,12.27
2023-01-02T14:19:40.161Z,12.77
2023-01-02T14:22:17.645Z,13.35
2023-01-02T14:24:52.317Z,13.15
2023-01-02T14:27:28.048Z,11.98
2023-01-02T14:30:00.953Z,12.55
2023-01-02T14:32:36.918Z,12.50
2023-01-02T14:35:06.450Z,13.10
2023-01-02T14:38:00.005Z,13.40
2023-01-02T14:40:29.939Z,14.27
2023-01-02T14:43:20.266Z,14.85
2023-01-02T14:45:49.698Z,13.68
2023-01-02T14:48:28.607Z,12.90
2023-01-02T14:51:01.933Z,14.48
2023-01-02T14:53:32.764Z,15.57
2023-01-02T14:56:03.059Z,14.63
2023-01-02T14:58:49.122Z,15.20
2023-01-02T15:01:42.970Z,15.18
2023-01-02T15:04:23.792Z,14.85
2023-01-02T15:07:06.116Z,15.73
2023-01-02T15:09:42.498Z,15.20
2023-01-02T15:12:41.312Z,16.40
2023-01-02T15:15:11.009Z,16.38
2023-01-02T15:17:38.157Z,14.82
2023-01-02T15:20:06.690Z,15.40
2023-01-02T15:22:37.756Z,16.00
2023-01-02T15:25:05.058Z,15.18
2023-01-02T15:27:33.208Z,15.88
2023-01-02T15:30:01.234Z,15.88
2023-01-02T15:32:28.342Z,15.85
2023-01-02T15:35:10.740Z,16.15
2023-01-02T15:37:42.412Z,14.43
2023-01-02T15:40:15.296Z,15.43
2023-01-02T15:43:01.426Z,15.90
2023-01-02T15:45:28.819Z,15.30
2023-01-02T15:47:56.406Z,16.15
2023-01-02T15:50:24.729Z,14.68
2023-01-02T15:53:09.165Z,16.00
2023-01-02T15:55:37.836Z,16.77
2023-01-02T15:58:16.940Z,15.80
2023-01-02T16:00:45.121Z,16.42
2023-01-02T16:03:14.340Z,17.55
2023-01-02T16:05:52.412Z,16.90
2023-01-02T16:08:21.392Z,16.02
2023-01-02T16:10:51.312Z,17.10
2023-01-02T16:13:41.674Z,16.63
2023-01-02T16:16:16.541Z,16.85
2023-01-02T16:18:45.991Z,19.55
2023-01-02T16:21:14.472Z,20.30
2023-01-02T16:23:44.291Z,19.60
2023-01-02T16:26:12.409Z,20.08
2023-01-02T16:28:40.800Z,19.65
2023-01-02T16:31:14.990Z,20.23
2023-01-02T16:33:42.469Z,18.10
2023-01-02T16:36:09.654Z,18.58
2023-01-02T16:38:56.078Z,18.38
2023-01-02T16:41:27.430Z,18.63
2023-01-02T16:43:54.515Z,18.20
2023-01-02T16:46:21.772Z,19.13
2023-01-02T16:48:48.907Z,18.02
2023-01-02T16:51:16.086Z,18.58
2023-01-02T16:53:43.934Z,18.40
2023-01-02T16:56:11.783Z,18.33
2023-01-02T16:58:39.017Z,17.80
2023-01-02T17:01:06.405Z,19.13
2023-01-02T17:03:33.579Z,20.02
2023-01-02T17:06:04.719Z,19.80
2023-01-02T17:08:32.242Z,20.23
2023-01-02T17:10:59.917Z,19.75
2023-01-02T17:13:27.619Z,19.85
2023-01-02T17:15:54.929Z,20.55
2023-01-02T17:18:22.453Z,22.08
2023-01-02T17:20:49.596Z,20.63
2023-01-02T17:23:19.403Z,21.70
2023-01-02T17:25:46.968Z,21.35
2023-01-02T17:28:14.388Z,25.05
2023-01-02T17:30:42.253Z,23.02
2023-01-02T17:33:09.329Z,21.10
2023-01-02T17:35:36.491Z,21.67
2023-01-02T17:38:03.862Z,19.73
2023-01-02T17:40:30.955Z,19.00
2023-01-02T17:42:58.015Z,20.52
2023-01-02T17:45:25.385Z,22.05
2023-01-02T17:48:06.138Z,24.20
2023-01-02T17:50:37.497Z,27.95
2023-01-02T17:53:04.591Z,27.60
2023-01-02T17:55:31.674Z,27.30
2023-01-02T17:58:00.835Z,26.10
2023-01-02T18:00:28.115Z,27.48
2023-01-02T18:02:55.353Z,27.48
2023-01-02T18:05:22.873Z,30.23
2023-01-02T18:07:50.010Z,32.28
2023-01-02T18:10:20.406Z,30.75
2023-01-02T18:12:49.247Z,30.95
2023-01-02T18:15:16.947Z,28.80
2023-01-02T18:17:46.634Z,30.83
2023-01-02T18:20:14.851Z,27.70
2023-01-02T18:22:48.303Z,27.52
2023-01-02T18:25:19.357Z,24.88
2023-01-02T18:27:47.037Z,25.10
2023-01-02T18:30:17.520Z,25.40
2023-01-02T18:32:45.176Z,26.38
2023-01-02T18:35:56.054Z,23.83
2023-01-02T18:38:31.944Z,24.55
2023-01-02T18:40:59.185Z,23.10
2023-01-02T18:43:28.233Z,22.80
2023-01-02T18:45:57.149Z,23.60
2023-01-02T18:48:24.382Z,23.10
2023-01-02T18:50:56.081Z,24.15
2023-01-02T18:53:26.120Z,21.73
2023-01-02T18:55:57.604Z,21.65
2023-01-02T18:58:24.741Z,22.92
2023-01-02T19:00:53.705Z,23.48
2023-01-02T19:03:27.920Z,21.98
2023-01-02T19:05:55.511Z,23.30
2023-01-02T19:08:36.995Z,21.98
2023-01-02T19:11:32.837Z,21.30
2023-01-02T19:13:59.911Z,21.80
2023-01-02T19:16:27.073Z,21.42
2023-01-02T19:18:56.439Z,23.00
2023-01-02T19:21:29.699Z,22.08
2023-01-02T19:24:00.689Z,22.20
2023-01-02T19:26:35.000Z,21.52
2023-01-02T19:29:12.521Z,19.85
2023-01-02T19:31:39.573Z,21.98
2023-01-02T19:34:17.859Z,21.38
2023-01-02T19:36:44.951Z,21.98
2023-01-02T19:39:32.365Z,22.00
2023-01-02T19:42:18.239Z,23.38
2023-01-02T19:44:45.919Z,23.17
2023-01-02T19:47:13.033Z,23.00
2023-01-02T19:49:40.391Z,23.50
2023-01-02T19:52:07.582Z,23.02
2023-01-02T19:54:34.830Z,24.38
2023-01-02T19:57:01.902Z,25.15
2023-01-02T19:59:29.116Z,23.73
2023-01-02T20:01:56.405Z,23.65
2023-01-02T20:04:23.669Z,23.70
2023-01-02T20:06:50.816Z,26.67
2023-01-02T20:09:19.812Z,25.95
2023-01-02T20:12:07.689Z,28.48
2023-01-02T20:14:34.984Z,32.72
2023-01-02T20:17:02.091Z,33.25
2023-01-02T20:19:29.294Z,36.47
2023-01-02T20:21:56.413Z,35.40
2023-01-02T20:24:23.493Z,36.15
2023-01-02T20:26:50.667Z,33.53
2023-01-02T20:29:17.877Z,36.42
2023-01-02T20:31:45.009Z,36.25
2023-01-02T20:34:12.292Z,37.28
2023-01-02T20:36:39.430Z,37.08
2023-01-02T20:39:06.627Z,36.85
2023-01-02T20:41:33.839Z,38.17
2023-01-02T20:44:01.221Z,38.30
2023-01-02T20:46:28.336Z,38.25
2023-01-02T20:48:55.544Z,37.63
2023-01-02T20:51:22.676Z,38.05
2023-01-02T20:53:49.824Z,37.22
2023-01-02T20:56:16.990Z,33.40
2023-01-02T20:58:44.083Z,31.98
2023-01-02T21:01:11.285Z,32.47
2023-01-02T21:03:38.480Z,32.20
2023-01-02T21:06:05.739Z,30.13
2023-01-02T21:08:32.893Z,28.17
2023-01-02T21:11:00.056Z,28.25
2023-01-02T21:13:27.129Z,29.23
2023-01-02T21:15:55.457Z,28.17
2023-01-02T21:18:23.859Z,28.70
2023-01-02T21:20:55.338Z,29.10
2023-01-02T21:23:23.251Z,33.03
2023-01-02T21:25:50.648Z,31.85
2023-01-02T21:28:18.167Z,32.22
2023-01-02T21:30:45.390Z,28.92
2023-01-02T21:33:13.309Z,29.50
2023-01-02T21:35:41.670Z,28.00
2023-01-02T21:38:09.851Z,28.08
2023-01-02T21:40:37.042Z,26.52
2023-01-02T21:43:04.233Z,26.60
2023-01-02T21:45:31.407Z,26.45
2023-01-02T21:47:58.820Z,23.38
2023-01-02T21:50:26.341Z,24.73
2023-01-02T21:52:54.055Z,28.98
2023-01-02T21:55:21.479Z,29.88
2023-01-02T22:00:36.645Z,33.13
2023-01-02T22:03:03.862Z,34.40
2023-01-02T22:05:31.051Z,35.00
2023-01-02T22:07:58.239Z,36.33
2023-01-02T22:10:25.329Z,38.58
2023-01-02T22:12:52.419Z,39.65
2023-01-02T22:15:19.608Z,41.03
2023-01-02T22:17:46.695Z,40.25
2023-01-02T22:20:13.895Z,42.90
2023-01-02T22:22:41.095Z,43.30
2023-01-02T22:25:08.865Z,41.33
2023-01-02T22:27:36.397Z,38.92
2023-01-02T22:30:23.396Z,43.65
2023-01-02T22:32:51.056Z,41.58
2023-01-02T22:35:18.450Z,39.95
2023-01-02T22:37:45.626Z,41.90
2023-01-02T22:40:13.122Z,45.45
2023-01-02T22:43:05.373Z,46.38
2023-01-02T22:45:36.218Z,47.03
2023-01-02T22:48:05.149Z,45.00
2023-01-02T22:50:37.857Z,47.17
2023-01-02T22:53:09.165Z,45.45
2023-01-02T22:58:03.358Z,44.63
2023-01-02T23:00:30.529Z,46.30
2023-01-02T23:02:57.627Z,47.10
2023-01-02T23:05:24.715Z,47.50
2023-01-02T23:07:51.995Z,41.17
2023-01-02T23:10:19.340Z,44.38
2023-01-02T23:12:46.499Z,45.78
2023-01-02T23:15:14.298Z,41.60
2023-01-02T23:17:59.868Z,36.60
2023-01-02T23:20:27.631Z,37.10
2023-01-02T23:22:54.819Z,33.90
2023-01-02T23:25:22.191Z,34.33
2023-01-02T23:27:49.457Z,32.28
2023-01-02T23:30:16.682Z,31.63
2023-01-02T23:32:43.867Z,34.15
2023-01-02T23:35:11.038Z,29.10
2023-01-02T23:37:38.174Z,33.70
2023-01-02T23:40:06.100Z,35.40
2023-01-02T23:42:33.269Z,37.50
2023-01-02T23:45:00.341Z,32.28
2023-01-02T23:47:27.429Z,37.08
2023-01-02T23:49:54.562Z,37.47
2023-01-02T23:52:21.660Z,38.20
2023-01-02T23:54:48.757Z,36.05
2023-01-02T23:57:16.068Z,37.80
2023-01-02T23:59:43.190Z,38.35
